sensor_id;sensor_type;location;lat;lon;timestamp;pressure;altitude;pressure_sealevel;temperature;humidity
46710;BME280;32442;51.514;-0.178;2023-04-08T00:00:19;102156.00;;;16.59;46.00
46710;BME280;32442;51.514;-0.178;2023-04-08T00:02:46;102150.66;;;16.57;45.66
46710;BME280;32442;51.514;-0.178;2023-04-08T00:05:13;102158.53;;;16.60;45.71
46710;BME280;32442;51.514;-0.178;2023-04-08T00:07:40;102153.19;;;16.59;45.67
46710;BME280;32442;51.514;-0.178;2023-04-08T00:10:07;102155.13;;;16.58;45.80
46710;BME280;32442;51.514;-0.178;2023-04-08T00:12:34;102154.06;;;16.59;45.69
46710;BME280;32442;51.514;-0.178;2023-04-08T00:15:02;102153.44;;;16.57;45.90
46710;BME280;32442;51.514;-0.178;2023-04-08T00:17:29;102157.94;;;16.58;45.88
46710;BME280;32442;51.514;-0.178;2023-04-08T00:19:58;102165.47;;;16.58;45.80
46710;BME280;32442;51.514;-0.178;2023-04-08T00:22:25;102159.03;;;16.57;45.99
46710;BME280;32442;51.514;-0.178;2023-04-08T00:24:52;102162.06;;;16.56;46.07
46710;BME280;32442;51.514;-0.178;2023-04-08T00:27:19;102160.13;;;16.56;45.92
46710;BME280;32442;51.514;-0.178;2023-04-08T00:29:46;102162.91;;;16.56;46.16
46710;BME280;32442;51.514;-0.178;2023-04-08T00:32:13;102155.63;;;16.55;45.92
46710;BME280;32442;51.514;-0.178;2023-04-08T00:34:41;102156.47;;;16.56;46.24
46710;BME280;32442;51.514;-0.178;2023-04-08T00:37:09;102157.00;;;16.53;46.38
46710;BME280;32442;51.514;-0.178;2023-04-08T00:39:36;102154.19;;;16.53;46.06
46710;BME280;32442;51.514;-0.178;2023-04-08T00:42:03;102164.00;;;16.55;46.00
46710;BME280;32442;51.514;-0.178;2023-04-08T00:44:30;102157.56;;;16.55;46.22
46710;BME280;32442;51.514;-0.178;2023-04-08T00:46:57;102160.34;;;16.55;46.26
46710;BME280;32442;51.514;-0.178;2023-04-08T00:49:24;102159.50;;;16.54;45.91
46710;BME280;32442;51.514;-0.178;2023-04-08T00:51:53;102164.50;;;16.52;46.25
46710;BME280;32442;51.514;-0.178;2023-04-08T00:54:21;102163.91;;;16.50;46.39
46710;BME280;32442;51.514;-0.178;2023-04-08T00:56:48;102169.47;;;16.50;46.02
46710;BME280;32442;51.514;-0.178;2023-04-08T00:59:16;102168.16;;;16.53;46.01
46710;BME280;32442;51.514;-0.178;2023-04-08T01:01:43;102168.63;;;16.50;46.31
46710;BME280;32442;51.514;-0.178;2023-04-08T01:09:12;102156.63;;;16.49;46.47
46710;BME280;32442;51.514;-0.178;2023-04-08T01:11:40;102166.97;;;16.49;46.51
46710;BME280;32442;51.514;-0.178;2023-04-08T01:14:08;102167.53;;;16.51;46.41
46710;BME280;32442;51.514;-0.178;2023-04-08T01:16:37;102161.97;;;16.51;46.25
46710;BME280;32442;51.514;-0.178;2023-04-08T01:19:07;102162.19;;;16.49;46.51
46710;BME280;32442;51.514;-0.178;2023-04-08T01:21:36;102163.56;;;16.46;46.15
46710;BME280;32442;51.514;-0.178;2023-04-08T01:26:33;102165.25;;;16.48;46.24
46710;BME280;32442;51.514;-0.178;2023-04-08T01:29:01;102163.31;;;16.48;46.46
46710;BME280;32442;51.514;-0.178;2023-04-08T01:31:28;102161.88;;;16.45;46.65
46710;BME280;32442;51.514;-0.178;2023-04-08T01:33:56;102159.94;;;16.46;46.10
46710;BME280;32442;51.514;-0.178;2023-04-08T01:36:23;102164.94;;;16.44;46.59
46710;BME280;32442;51.514;-0.178;2023-04-08T01:38:51;102164.41;;;16.47;46.50
46710;BME280;32442;51.514;-0.178;2023-04-08T01:41:18;102163.56;;;16.46;46.49
46710;BME280;32442;51.514;-0.178;2023-04-08T01:43:46;102159.94;;;16.46;46.65
46710;BME280;32442;51.514;-0.178;2023-04-08T01:46:14;102159.06;;;16.45;46.37
46710;BME280;32442;51.514;-0.178;2023-04-08T01:48:41;102162.63;;;16.41;46.63
46710;BME280;32442;51.514;-0.178;2023-04-08T01:51:08;102163.22;;;16.43;46.66
46710;BME280;32442;51.514;-0.178;2023-04-08T01:53:37;102171.31;;;16.44;46.33
46710;BME280;32442;51.514;-0.178;2023-04-08T01:56:05;102173.78;;;16.41;46.74
46710;BME280;32442;51.514;-0.178;2023-04-08T01:58:36;102178.25;;;16.42;46.73
46710;BME280;32442;51.514;-0.178;2023-04-08T02:01:05;102168.19;;;16.41;46.62
46710;BME280;32442;51.514;-0.178;2023-04-08T02:03:35;102173.53;;;16.42;46.28
46710;BME280;32442;51.514;-0.178;2023-04-08T02:06:03;102167.00;;;16.37;46.65
46710;BME280;32442;51.514;-0.178;2023-04-08T02:08:32;102172.91;;;16.40;46.43
46710;BME280;32442;51.514;-0.178;2023-04-08T02:10:59;102165.69;;;16.39;46.55
46710;BME280;32442;51.514;-0.178;2023-04-08T02:13:26;102164.81;;;16.39;46.50
46710;BME280;32442;51.514;-0.178;2023-04-08T02:15:56;102162.88;;;16.39;46.45
46710;BME280;32442;51.514;-0.178;2023-04-08T02:18:24;102169.81;;;16.37;46.54
46710;BME280;32442;51.514;-0.178;2023-04-08T02:20:56;102162.53;;;16.36;46.58
46710;BME280;32442;51.514;-0.178;2023-04-08T02:23:24;102153.91;;;16.37;46.41
46710;BME280;32442;51.514;-0.178;2023-04-08T02:25:55;102156.47;;;16.39;46.61
46710;BME280;32442;51.514;-0.178;2023-04-08T02:28:22;102161.78;;;16.40;46.76
46710;BME280;32442;51.514;-0.178;2023-04-08T02:30:49;102159.50;;;16.37;46.43
46710;BME280;32442;51.514;-0.178;2023-04-08T02:33:18;102161.66;;;16.35;46.74
46710;BME280;32442;51.514;-0.178;2023-04-08T02:35:46;102160.84;;;16.35;46.57
46710;BME280;32442;51.514;-0.178;2023-04-08T02:38:14;102156.09;;;16.35;46.70
46710;BME280;32442;51.514;-0.178;2023-04-08T02:40:41;102165.59;;;16.34;46.62
46710;BME280;32442;51.514;-0.178;2023-04-08T02:43:08;102164.22;;;16.37;46.80
46710;BME280;32442;51.514;-0.178;2023-04-08T02:45:37;102176.13;;;16.32;46.52
46710;BME280;32442;51.514;-0.178;2023-04-08T02:48:04;102170.56;;;16.32;46.92
46710;BME280;32442;51.514;-0.178;2023-04-08T02:50:32;102172.25;;;16.33;46.89
46710;BME280;32442;51.514;-0.178;2023-04-08T02:52:58;102172.81;;;16.35;46.72
46710;BME280;32442;51.514;-0.178;2023-04-08T02:55:25;102178.69;;;16.34;46.84
46710;BME280;32442;51.514;-0.178;2023-04-08T02:57:52;102182.31;;;16.34;46.45
46710;BME280;32442;51.514;-0.178;2023-04-08T03:00:19;102171.75;;;16.36;46.58
46710;BME280;32442;51.514;-0.178;2023-04-08T03:02:46;102176.13;;;16.32;46.58
46710;BME280;32442;51.514;-0.178;2023-04-08T03:05:13;102182.78;;;16.31;46.98
46710;BME280;32442;51.514;-0.178;2023-04-08T03:07:41;102188.38;;;16.31;46.99
46710;BME280;32442;51.514;-0.178;2023-04-08T03:10:08;102182.78;;;16.31;46.72
46710;BME280;32442;51.514;-0.178;2023-04-08T03:12:35;102189.22;;;16.32;46.86
46710;BME280;32442;51.514;-0.178;2023-04-08T03:15:02;102188.88;;;16.28;46.77
46710;BME280;32442;51.514;-0.178;2023-04-08T03:17:29;102190.81;;;16.28;46.81
46710;BME280;32442;51.514;-0.178;2023-04-08T03:19:59;102198.09;;;16.29;46.85
46710;BME280;32442;51.514;-0.178;2023-04-08T03:22:26;102192.28;;;16.30;46.70
46710;BME280;32442;51.514;-0.178;2023-04-08T03:24:53;102191.91;;;16.27;46.88
46710;BME280;32442;51.514;-0.178;2023-04-08T03:27:20;102198.09;;;16.29;46.85
46710;BME280;32442;51.514;-0.178;2023-04-08T03:29:47;102201.13;;;16.27;47.08
46710;BME280;32442;51.514;-0.178;2023-04-08T03:32:14;102200.53;;;16.25;47.09
46710;BME280;32442;51.514;-0.178;2023-04-08T03:34:41;102201.41;;;16.26;46.89
46710;BME280;32442;51.514;-0.178;2023-04-08T03:37:08;102206.69;;;16.27;46.99
46710;BME280;32442;51.514;-0.178;2023-04-08T03:39:35;102206.13;;;16.25;47.09
46710;BME280;32442;51.514;-0.178;2023-04-08T03:42:01;102213.13;;;16.28;47.01
46710;BME280;32442;51.514;-0.178;2023-04-08T03:44:29;102213.38;;;16.26;46.85
46710;BME280;32442;51.514;-0.178;2023-04-08T03:46:56;102213.63;;;16.25;46.83
46710;BME280;32442;51.514;-0.178;2023-04-08T03:49:25;102225.38;;;16.27;47.24
46710;BME280;32442;51.514;-0.178;2023-04-08T03:51:52;102219.56;;;16.28;46.95
46710;BME280;32442;51.514;-0.178;2023-04-08T03:54:18;102217.00;;;16.27;47.05
46710;BME280;32442;51.514;-0.178;2023-04-08T03:56:47;102220.31;;;16.24;46.83
46710;BME280;32442;51.514;-0.178;2023-04-08T03:59:17;102228.44;;;16.25;47.27
46710;BME280;32442;51.514;-0.178;2023-04-08T04:01:44;102225.03;;;16.23;47.14
46710;BME280;32442;51.514;-0.178;2023-04-08T04:04:12;102232.88;;;16.26;47.10
46710;BME280;32442;51.514;-0.178;2023-04-08T04:06:39;102235.09;;;16.24;47.13
46710;BME280;32442;51.514;-0.178;2023-04-08T04:09:06;102235.66;;;16.26;46.91
46710;BME280;32442;51.514;-0.178;2023-04-08T04:11:33;102232.53;;;16.23;46.97
46710;BME280;32442;51.514;-0.178;2023-04-08T04:14:01;102237.28;;;16.22;47.35
46710;BME280;32442;51.514;-0.178;2023-04-08T04:16:28;102232.31;;;16.24;47.04
46710;BME280;32442;51.514;-0.178;2023-04-08T04:18:58;102226.97;;;16.23;46.92
46710;BME280;32442;51.514;-0.178;2023-04-08T04:21:25;102233.16;;;16.25;47.12
46710;BME280;32442;51.514;-0.178;2023-04-08T04:23:52;102229.75;;;16.23;47.10
46710;BME280;32442;51.514;-0.178;2023-04-08T04:26:19;102237.03;;;16.24;47.19
46710;BME280;32442;51.514;-0.178;2023-04-08T04:28:46;102235.94;;;16.25;46.94
46710;BME280;32442;51.514;-0.178;2023-04-08T04:33:44;102239.47;;;16.20;47.08
46710;BME280;32442;51.514;-0.178;2023-04-08T04:36:11;102240.91;;;16.23;47.08
46710;BME280;32442;51.514;-0.178;2023-04-08T04:38:37;102247.00;;;16.20;47.10
46710;BME280;32442;51.514;-0.178;2023-04-08T04:41:04;102245.28;;;16.19;46.95
46710;BME280;32442;51.514;-0.178;2023-04-08T04:43:31;102249.78;;;16.20;47.30
46710;BME280;32442;51.514;-0.178;2023-04-08T04:45:58;102246.13;;;16.19;47.49
46710;BME280;32442;51.514;-0.178;2023-04-08T04:48:28;102248.69;;;16.21;47.06
46710;BME280;32442;51.514;-0.178;2023-04-08T04:50:55;102255.94;;;16.22;47.21
46710;BME280;32442;51.514;-0.178;2023-04-08T04:53:22;102254.75;;;16.18;47.31
46710;BME280;32442;51.514;-0.178;2023-04-08T04:55:49;102253.06;;;16.17;47.24
46710;BME280;32442;51.514;-0.178;2023-04-08T04:58:17;102251.72;;;16.19;47.30
46710;BME280;32442;51.514;-0.178;2023-04-08T05:00:44;102255.13;;;16.21;47.23
46710;BME280;32442;51.514;-0.178;2023-04-08T05:03:12;102268.22;;;16.21;47.28
46710;BME280;32442;51.514;-0.178;2023-04-08T05:05:39;102266.75;;;16.18;47.48
46710;BME280;32442;51.514;-0.178;2023-04-08T05:08:07;102266.84;;;16.23;47.33
46710;BME280;32442;51.514;-0.178;2023-04-08T05:10:34;102262.88;;;16.19;47.11
46710;BME280;32442;51.514;-0.178;2023-04-08T05:13:00;102257.78;;;16.16;47.11
46710;BME280;32442;51.514;-0.178;2023-04-08T05:15:27;102267.00;;;16.17;47.41
46710;BME280;32442;51.514;-0.178;2023-04-08T05:17:54;102272.09;;;16.20;47.13
46710;BME280;32442;51.514;-0.178;2023-04-08T05:20:21;102274.03;;;16.19;46.98
46710;BME280;32442;51.514;-0.178;2023-04-08T05:22:48;102272.94;;;16.20;47.35
46710;BME280;32442;51.514;-0.178;2023-04-08T05:25:17;102272.59;;;16.17;47.50
46710;BME280;32442;51.514;-0.178;2023-04-08T05:27:44;102276.19;;;16.17;47.44
46710;BME280;32442;51.514;-0.178;2023-04-08T05:30:12;102276.81;;;16.19;47.19
46710;BME280;32442;51.514;-0.178;2023-04-08T05:32:41;102278.75;;;16.19;47.13
46710;BME280;32442;51.514;-0.178;2023-04-08T05:35:08;102277.66;;;16.20;47.23
46710;BME280;32442;51.514;-0.178;2023-04-08T05:37:35;102289.31;;;16.17;47.45
46710;BME280;32442;51.514;-0.178;2023-04-08T05:40:02;102289.56;;;16.15;47.21
46710;BME280;32442;51.514;-0.178;2023-04-08T05:42:29;102294.28;;;16.15;47.42
46710;BME280;32442;51.514;-0.178;2023-04-08T05:44:57;102292.34;;;16.15;47.34
46710;BME280;32442;51.514;-0.178;2023-04-08T05:47:24;102290.63;;;16.14;47.44
46710;BME280;32442;51.514;-0.178;2023-04-08T05:49:51;102295.13;;;16.15;47.38
46710;BME280;32442;51.514;-0.178;2023-04-08T05:52:18;102298.41;;;16.12;47.40
46710;BME280;32442;51.514;-0.178;2023-04-08T05:54:45;102299.25;;;16.13;47.43
46710;BME280;32442;51.514;-0.178;2023-04-08T05:57:12;102300.34;;;16.12;47.53
46710;BME280;32442;51.514;-0.178;2023-04-08T05:59:39;102295.38;;;16.14;47.39
46710;BME280;32442;51.514;-0.178;2023-04-08T06:02:06;102309.31;;;16.14;47.10
46710;BME280;32442;51.514;-0.178;2023-04-08T06:04:33;102308.44;;;16.13;47.28
46710;BME280;32442;51.514;-0.178;2023-04-08T06:07:00;102309.31;;;16.14;47.58
46710;BME280;32442;51.514;-0.178;2023-04-08T06:09:30;102312.94;;;16.14;47.28
46710;BME280;32442;51.514;-0.178;2023-04-08T06:12:00;102311.84;;;16.15;47.30
46710;BME280;32442;51.514;-0.178;2023-04-08T06:14:26;102312.94;;;16.14;47.33
46710;BME280;32442;51.514;-0.178;2023-04-08T06:16:53;102313.19;;;16.13;47.46
46710;BME280;32442;51.514;-0.178;2023-04-08T06:19:23;102317.66;;;16.14;47.39
46710;BME280;32442;51.514;-0.178;2023-04-08T06:21:50;102318.75;;;16.13;47.47
46710;BME280;32442;51.514;-0.178;2023-04-08T06:24:17;102320.47;;;16.14;47.13
46710;BME280;32442;51.514;-0.178;2023-04-08T06:26:44;102319.59;;;16.13;47.13
46710;BME280;32442;51.514;-0.178;2023-04-08T06:29:11;102327.13;;;16.13;47.27
46710;BME280;32442;51.514;-0.178;2023-04-08T06:31:37;102323.75;;;16.11;47.63
46710;BME280;32442;51.514;-0.178;2023-04-08T06:34:05;102316.81;;;16.13;47.31
46710;BME280;32442;51.514;-0.178;2023-04-08T06:36:34;102331.88;;;16.12;47.28
46710;BME280;32442;51.514;-0.178;2023-04-08T06:39:00;102328.22;;;16.12;47.20
46710;BME280;32442;51.514;-0.178;2023-04-08T06:41:27;102324.59;;;16.11;47.50
46710;BME280;32442;51.514;-0.178;2023-04-08T06:43:55;102327.38;;;16.11;47.63
46710;BME280;32442;51.514;-0.178;2023-04-08T06:46:22;102331.03;;;16.12;47.39
46710;BME280;32442;51.514;-0.178;2023-04-08T06:48:49;102330.41;;;16.10;47.49
46710;BME280;32442;51.514;-0.178;2023-04-08T06:51:17;102342.19;;;16.12;47.16
46710;BME280;32442;51.514;-0.178;2023-04-08T06:53:44;102342.41;;;16.10;47.20
46710;BME280;32442;51.514;-0.178;2023-04-08T06:56:10;102343.63;;;16.14;47.25
46710;BME280;32442;51.514;-0.178;2023-04-08T06:58:40;102341.56;;;16.10;47.54
46710;BME280;32442;51.514;-0.178;2023-04-08T07:01:06;102340.72;;;16.09;47.35
46710;BME280;32442;51.514;-0.178;2023-04-08T07:03:34;102334.03;;;16.10;47.65
46710;BME280;32442;51.514;-0.178;2023-04-08T07:06:01;102333.19;;;16.10;47.63
46710;BME280;32442;51.514;-0.178;2023-04-08T07:08:28;102345.19;;;16.10;47.26
46710;BME280;32442;51.514;-0.178;2023-04-08T07:10:55;102341.31;;;16.11;47.25
46710;BME280;32442;51.514;-0.178;2023-04-08T07:13:22;102345.81;;;16.12;47.17
46710;BME280;32442;51.514;-0.178;2023-04-08T07:15:49;102351.38;;;16.12;47.33
46710;BME280;32442;51.514;-0.178;2023-04-08T07:18:16;102361.06;;;16.10;47.41
46710;BME280;32442;51.514;-0.178;2023-04-08T07:20:43;102354.66;;;16.09;47.34
46710;BME280;32442;51.514;-0.178;2023-04-08T07:23:10;102365.78;;;16.09;47.18
46710;BME280;32442;51.514;-0.178;2023-04-08T07:25:37;102363.84;;;16.10;47.49
46710;BME280;32442;51.514;-0.178;2023-04-08T07:28:04;102368.13;;;16.12;47.31
46710;BME280;32442;51.514;-0.178;2023-04-08T07:30:30;102361.91;;;16.10;47.42
46710;BME280;32442;51.514;-0.178;2023-04-08T07:32:58;102373.06;;;16.10;47.67
46710;BME280;32442;51.514;-0.178;2023-04-08T07:35:28;102372.84;;;16.12;47.46
46710;BME280;32442;51.514;-0.178;2023-04-08T07:37:57;102374.78;;;16.11;47.24
46710;BME280;32442;51.514;-0.178;2023-04-08T07:40:24;102366.66;;;16.10;47.51
46710;BME280;32442;51.514;-0.178;2023-04-08T07:42:51;102383.72;;;16.13;47.39
46710;BME280;32442;51.514;-0.178;2023-04-08T07:45:20;102381.44;;;16.10;47.25
46710;BME280;32442;51.514;-0.178;2023-04-08T07:47:49;102386.78;;;16.12;47.37
46710;BME280;32442;51.514;-0.178;2023-04-08T07:50:16;102384.72;;;16.07;47.73
46710;BME280;32442;51.514;-0.178;2023-04-08T07:52:43;102385.94;;;16.11;47.56
46710;BME280;32442;51.514;-0.178;2023-04-08T07:55:10;102387.63;;;16.12;47.42
46710;BME280;32442;51.514;-0.178;2023-04-08T07:57:37;102386.78;;;16.12;47.40
46710;BME280;32442;51.514;-0.178;2023-04-08T08:00:05;102395.16;;;16.12;47.69
46710;BME280;32442;51.514;-0.178;2023-04-08T08:02:35;102390.41;;;16.12;47.64
46710;BME280;32442;51.514;-0.178;2023-04-08T08:05:02;102388.72;;;16.11;47.31
46710;BME280;32442;51.514;-0.178;2023-04-08T08:07:29;102399.88;;;16.11;47.28
46710;BME280;32442;51.514;-0.178;2023-04-08T08:09:56;102395.38;;;16.10;47.39
46710;BME280;32442;51.514;-0.178;2023-04-08T08:12:23;102404.59;;;16.11;47.54
46710;BME280;32442;51.514;-0.178;2023-04-08T08:14:50;102405.81;;;16.15;47.23
46710;BME280;32442;51.514;-0.178;2023-04-08T08:17:17;102397.94;;;16.12;47.30
46710;BME280;32442;51.514;-0.178;2023-04-08T08:19:44;102406.28;;;16.12;47.50
46710;BME280;32442;51.514;-0.178;2023-04-08T08:22:11;102407.38;;;16.11;47.44
46710;BME280;32442;51.514;-0.178;2023-04-08T08:24:41;102408.22;;;16.11;47.56
46710;BME280;32442;51.514;-0.178;2023-04-08T08:27:09;102405.44;;;16.11;47.54
46710;BME280;32442;51.514;-0.178;2023-04-08T08:29:36;102405.69;;;16.10;47.35
46710;BME280;32442;51.514;-0.178;2023-04-08T08:32:04;102407.97;;;16.13;47.54
46710;BME280;32442;51.514;-0.178;2023-04-08T08:34:31;102409.94;;;16.12;47.72
46710;BME280;32442;51.514;-0.178;2023-04-08T08:36:57;102416.34;;;16.13;47.28
46710;BME280;32442;51.514;-0.178;2023-04-08T08:39:25;102417.44;;;16.12;47.71
46710;BME280;32442;51.514;-0.178;2023-04-08T08:41:52;102414.16;;;16.15;47.51
46710;BME280;32442;51.514;-0.178;2023-04-08T08:44:19;102420.81;;;16.14;47.20
46710;BME280;32442;51.514;-0.178;2023-04-08T08:46:46;102420.81;;;16.14;47.53
46710;BME280;32442;51.514;-0.178;2023-04-08T08:49:13;102412.22;;;16.15;47.50
46710;BME280;32442;51.514;-0.178;2023-04-08T08:51:41;102416.09;;;16.14;47.34
46710;BME280;32442;51.514;-0.178;2023-04-08T08:54:09;102423.97;;;16.17;47.56
46710;BME280;32442;51.514;-0.178;2023-04-08T08:56:36;102423.38;;;16.15;47.60
46710;BME280;32442;51.514;-0.178;2023-04-08T08:59:03;102428.09;;;16.15;47.52
46710;BME280;32442;51.514;-0.178;2023-04-08T09:01:31;102423.38;;;16.15;47.59
46710;BME280;32442;51.514;-0.178;2023-04-08T09:06:28;102429.31;;;16.19;47.58
46710;BME280;32442;51.514;-0.178;2023-04-08T09:08:56;102429.09;;;16.20;47.33
46710;BME280;32442;51.514;-0.178;2023-04-08T09:11:23;102417.94;;;16.20;47.26
46710;BME280;32442;51.514;-0.178;2023-04-08T09:13:51;102428.81;;;16.22;47.17
46710;BME280;32442;51.514;-0.178;2023-04-08T09:16:18;102428.59;;;16.23;47.28
46710;BME280;32442;51.514;-0.178;2023-04-08T09:18:46;102423.63;;;16.25;47.47
46710;BME280;32442;51.514;-0.178;2023-04-08T09:21:15;102417.44;;;16.23;47.46
46710;BME280;32442;51.514;-0.178;2023-04-08T09:23:44;102419.72;;;16.26;47.09
46710;BME280;32442;51.514;-0.178;2023-04-08T09:28:39;102422.50;;;16.26;47.40
46710;BME280;32442;51.514;-0.178;2023-04-08T09:33:36;102421.69;;;16.26;47.05
46710;BME280;32442;51.514;-0.178;2023-04-08T09:36:03;102421.78;;;16.31;47.02
46710;BME280;32442;51.514;-0.178;2023-04-08T09:38:33;102429.56;;;16.29;47.39
46710;BME280;32442;51.514;-0.178;2023-04-08T09:41:01;102424.84;;;16.29;46.93
46710;BME280;32442;51.514;-0.178;2023-04-08T09:43:33;102423.13;;;16.28;47.10
46710;BME280;32442;51.514;-0.178;2023-04-08T09:46:04;102417.91;;;16.32;46.85
46710;BME280;32442;51.514;-0.178;2023-04-08T09:48:34;102425.19;;;16.33;46.97
46710;BME280;32442;51.514;-0.178;2023-04-08T09:51:05;102427.75;;;16.34;46.94
46710;BME280;32442;51.514;-0.178;2023-04-08T09:53:33;102419.09;;;16.36;47.29
46710;BME280;32442;51.514;-0.178;2023-04-08T09:56:03;102430.88;;;16.38;47.26
46710;BME280;32442;51.514;-0.178;2023-04-08T09:58:36;102427.25;;;16.37;47.28
46710;BME280;32442;51.514;-0.178;2023-04-08T10:01:04;102437.91;;;16.40;47.00
46710;BME280;32442;51.514;-0.178;2023-04-08T10:06:04;102431.25;;;16.41;47.05
46710;BME280;32442;51.514;-0.178;2023-04-08T10:08:33;102434.88;;;16.42;46.84
46710;BME280;32442;51.514;-0.178;2023-04-08T10:11:01;102431.34;;;16.46;46.71
46710;BME280;32442;51.514;-0.178;2023-04-08T10:13:28;102436.94;;;16.46;47.03
46710;BME280;32442;51.514;-0.178;2023-04-08T10:20:55;102423.59;;;16.49;47.02
46710;BME280;32442;51.514;-0.178;2023-04-08T10:26:28;102433.66;;;16.50;46.78
46710;BME280;32442;51.514;-0.178;2023-04-08T10:29:11;102425.28;;;16.50;46.69
46710;BME280;32442;51.514;-0.178;2023-04-08T10:31:44;102428.19;;;16.55;46.83
46710;BME280;32442;51.514;-0.178;2023-04-08T10:36:43;102431.59;;;16.57;46.77
46710;BME280;32442;51.514;-0.178;2023-04-08T10:39:11;102423.84;;;16.59;46.73
46710;BME280;32442;51.514;-0.178;2023-04-08T10:46:39;102410.25;;;16.62;46.61
46710;BME280;32442;51.514;-0.178;2023-04-08T10:49:07;102407.19;;;16.64;46.46
46710;BME280;32442;51.514;-0.178;2023-04-08T10:51:34;102409.75;;;16.65;46.28
46710;BME280;32442;51.514;-0.178;2023-04-08T10:54:05;102407.19;;;16.64;46.58
46710;BME280;32442;51.514;-0.178;2023-04-08T10:56:33;102402.97;;;16.61;46.62
46710;BME280;32442;51.514;-0.178;2023-04-08T10:59:01;102397.97;;;16.63;46.45
46710;BME280;32442;51.514;-0.178;2023-04-08T11:01:36;102396.56;;;16.61;46.61
46710;BME280;32442;51.514;-0.178;2023-04-08T11:06:35;102397.97;;;16.63;46.61
46710;BME280;32442;51.514;-0.178;2023-04-08T11:09:03;102386.25;;;16.61;46.66
46710;BME280;32442;51.514;-0.178;2023-04-08T11:11:30;102391.94;;;16.66;46.25
46710;BME280;32442;51.514;-0.178;2023-04-08T11:13:57;102389.63;;;16.63;46.70
46710;BME280;32442;51.514;-0.178;2023-04-08T11:16:24;102384.88;;;16.64;46.61
46710;BME280;32442;51.514;-0.178;2023-04-08T11:18:53;102381.00;;;16.65;46.44
46710;BME280;32442;51.514;-0.178;2023-04-08T11:21:22;102384.66;;;16.65;46.65
46710;BME280;32442;51.514;-0.178;2023-04-08T11:23:49;102381.00;;;16.65;46.63
46710;BME280;32442;51.514;-0.178;2023-04-08T11:26:18;102390.00;;;16.67;46.24
46710;BME280;32442;51.514;-0.178;2023-04-08T11:28:45;102386.34;;;16.66;46.67
46710;BME280;32442;51.514;-0.178;2023-04-08T11:31:14;102389.72;;;16.68;46.24
46710;BME280;32442;51.514;-0.178;2023-04-08T11:36:12;102383.06;;;16.69;46.39
46710;BME280;32442;51.514;-0.178;2023-04-08T11:38:39;102384.13;;;16.68;46.52
46710;BME280;32442;51.514;-0.178;2023-04-08T11:41:08;102388.41;;;16.71;46.45
46710;BME280;32442;51.514;-0.178;2023-04-08T11:43:35;102393.47;;;16.74;46.21
46710;BME280;32442;51.514;-0.178;2023-04-08T11:48:37;102388.59;;;16.81;46.13
46710;BME280;32442;51.514;-0.178;2023-04-08T11:51:05;102392.50;;;16.80;46.16
46710;BME280;32442;51.514;-0.178;2023-04-08T11:53:34;102388.09;;;16.84;46.04
46710;BME280;32442;51.514;-0.178;2023-04-08T11:58:36;102384.69;;;16.82;46.12
46710;BME280;32442;51.514;-0.178;2023-04-08T12:01:03;102376.94;;;16.84;46.41
46710;BME280;32442;51.514;-0.178;2023-04-08T12:03:30;102376.31;;;16.82;45.95
46710;BME280;32442;51.514;-0.178;2023-04-08T12:05:57;102372.34;;;16.78;46.39
46710;BME280;32442;51.514;-0.178;2023-04-08T12:08:25;102368.47;;;16.79;46.48
46710;BME280;32442;51.514;-0.178;2023-04-08T12:10:52;102362.66;;;16.80;46.31
46710;BME280;32442;51.514;-0.178;2023-04-08T12:13:19;102361.03;;;16.84;46.28
46710;BME280;32442;51.514;-0.178;2023-04-08T12:15:46;102367.81;;;16.88;46.16
46710;BME280;32442;51.514;-0.178;2023-04-08T12:18:17;102368.91;;;16.87;46.23
46710;BME280;32442;51.514;-0.178;2023-04-08T12:20:44;102369.16;;;16.86;46.20
46710;BME280;32442;51.514;-0.178;2023-04-08T12:23:11;102366.34;;;16.86;46.12
46710;BME280;32442;51.514;-0.178;2023-04-08T12:25:38;102367.94;;;16.82;46.36
46710;BME280;32442;51.514;-0.178;2023-04-08T12:28:05;102369.91;;;16.81;46.13
46710;BME280;32442;51.514;-0.178;2023-04-08T12:30:32;102367.94;;;16.82;46.12
46710;BME280;32442;51.514;-0.178;2023-04-08T12:32:59;102364.81;;;16.78;46.29
46710;BME280;32442;51.514;-0.178;2023-04-08T12:35:26;102360.19;;;16.84;46.09
46710;BME280;32442;51.514;-0.178;2023-04-08T12:37:53;102354.94;;;16.87;46.08
46710;BME280;32442;51.514;-0.178;2023-04-08T12:40:20;102344.13;;;16.91;46.09
46710;BME280;32442;51.514;-0.178;2023-04-08T12:42:47;102350.31;;;16.93;46.22
46710;BME280;32442;51.514;-0.178;2023-04-08T12:45:14;102349.97;;;16.89;46.16
46710;BME280;32442;51.514;-0.178;2023-04-08T12:47:41;102352.25;;;16.93;45.96
46710;BME280;32442;51.514;-0.178;2023-04-08T12:50:08;102357.50;;;16.89;46.25
46710;BME280;32442;51.514;-0.178;2023-04-08T12:52:35;102344.13;;;16.91;46.07
46710;BME280;32442;51.514;-0.178;2023-04-08T12:55:03;102346.91;;;16.91;45.90
46710;BME280;32442;51.514;-0.178;2023-04-08T12:57:30;102347.25;;;16.95;46.18
46710;BME280;32442;51.514;-0.178;2023-04-08T12:59:57;102343.72;;;16.99;46.00
46710;BME280;32442;51.514;-0.178;2023-04-08T13:02:24;102337.03;;;17.00;45.99
46710;BME280;32442;51.514;-0.178;2023-04-08T13:04:53;102340.34;;;16.97;46.09
46710;BME280;32442;51.514;-0.178;2023-04-08T13:07:20;102344.00;;;16.98;46.16
46710;BME280;32442;51.514;-0.178;2023-04-08T13:09:47;102347.03;;;16.96;45.86
46710;BME280;32442;51.514;-0.178;2023-04-08T13:12:14;102338.66;;;16.96;45.73
46710;BME280;32442;51.514;-0.178;2023-04-08T13:14:41;102342.03;;;16.98;45.99
46710;BME280;32442;51.514;-0.178;2023-04-08T13:17:08;102351.75;;;16.96;46.09
46710;BME280;32442;51.514;-0.178;2023-04-08T13:19:36;102341.09;;;16.93;46.01
46710;BME280;32442;51.514;-0.178;2023-04-08T13:22:03;102343.03;;;16.92;46.06
46710;BME280;32442;51.514;-0.178;2023-04-08T13:24:29;102348.72;;;16.97;45.76
46710;BME280;32442;51.514;-0.178;2023-04-08T13:26:56;102344.56;;;17.00;45.84